createdAt,value
2023-04-18T00:00:21.663Z,6.2551
2023-04-18T00:01:29.781Z,7.0438
2023-04-18T00:02:38.003Z,6.5571
2023-04-18T00:03:46.080Z,6.7879
2023-04-18T00:04:54.032Z,6.7223
2023-04-18T00:06:01.845Z,6.8170
2023-04-18T00:07:10.076Z,6.9098
2023-04-18T00:08:17.968Z,7.0617
2023-04-18T00:09:26.378Z,6.9746
2023-04-18T00:10:34.230Z,6.8587
2023-04-18T00:11:42.148Z,6.8073
2023-04-18T00:12:50.402Z,7.1852
2023-04-18T00:13:58.460Z,6.5734
2023-04-18T00:15:06.463Z,6.4757
2023-04-18T00:16:14.593Z,6.5410
2023-04-18T00:17:22.696Z,6.5293
2023-04-18T00:18:30.704Z,6.5718
2023-04-18T00:19:38.780Z,6.2225
2023-04-18T00:20:46.782Z,6.4037
2023-04-18T00:21:54.847Z,6.4357
2023-04-18T00:23:02.767Z,6.6744
2023-04-18T00:24:11.052Z,6.7544
2023-04-18T00:25:18.907Z,6.2311
2023-04-18T00:26:27.231Z,6.3946
2023-04-18T00:27:35.159Z,6.4530
2023-04-18T00:28:43.415Z,6.7595
2023-04-18T00:29:51.305Z,6.7053
2023-04-18T00:30:59.357Z,6.9869
2023-04-18T00:32:07.433Z,6.5865
2023-04-18T00:33:15.482Z,6.8585
2023-04-18T00:34:23.625Z,6.8051
2023-04-18T00:35:31.547Z,6.9590
2023-04-18T00:36:39.687Z,6.7985
2023-04-18T00:37:47.739Z,6.3822
2023-04-18T00:38:55.982Z,6.9549
2023-04-18T00:40:03.730Z,6.8466
2023-04-18T00:41:11.910Z,6.6394
2023-04-18T00:42:19.887Z,7.0559
2023-04-18T00:43:28.321Z,6.7885
2023-04-18T00:44:36.155Z,6.6425
2023-04-18T00:45:44.201Z,6.6669
2023-04-18T00:46:52.263Z,6.7714
2023-04-18T00:48:00.391Z,6.6110
2023-04-18T00:49:08.355Z,6.7684
2023-04-18T00:50:16.449Z,6.6648
2023-04-18T00:51:24.566Z,7.0019
2023-04-18T00:52:32.535Z,7.1433
2023-04-18T00:53:40.663Z,6.8987
2023-04-18T00:54:48.702Z,6.7947
2023-04-18T00:55:56.850Z,6.9150
2023-04-18T00:57:04.687Z,6.5833
2023-04-18T00:58:12.871Z,6.5572
2023-04-18T00:59:21.009Z,6.8196
2023-04-18T01:00:29.058Z,7.0033
2023-04-18T01:01:37.141Z,6.8011
2023-04-18T01:02:45.313Z,7.1823
2023-04-18T01:03:53.353Z,7.0496
2023-04-18T01:05:01.496Z,7.1725
2023-04-18T01:06:09.329Z,7.0653
2023-04-18T01:07:17.518Z,7.8054
2023-04-18T01:08:25.362Z,7.2186
2023-04-18T01:09:33.564Z,6.9600
2023-04-18T01:10:41.761Z,7.0572
2023-04-18T01:11:49.683Z,6.7241
2023-04-18T01:12:57.903Z,6.7071
2023-04-18T01:14:05.804Z,6.9287
2023-04-18T01:15:14.186Z,6.8832
2023-04-18T01:16:21.888Z,7.2678
2023-04-18T01:17:30.186Z,6.8758
2023-04-18T01:18:38.095Z,7.1158
2023-04-18T01:19:46.114Z,7.2711
2023-04-18T01:20:54.211Z,7.0003
2023-04-18T01:22:02.366Z,7.2410
2023-04-18T01:23:10.184Z,6.7984
2023-04-18T01:24:18.379Z,7.4528
2023-04-18T01:25:26.538Z,6.8906
2023-04-18T01:26:34.509Z,7.0692
2023-04-18T01:27:42.654Z,7.1419
2023-04-18T01:28:50.602Z,7.2980
2023-04-18T01:29:58.712Z,7.3565
2023-04-18T01:31:06.788Z,7.3039
2023-04-18T01:32:14.997Z,7.2534
2023-04-18T01:33:23.033Z,7.3056
2023-04-18T01:34:30.838Z,7.3939
2023-04-18T01:35:39.024Z,7.3788
2023-04-18T01:36:47.087Z,6.9912
2023-04-18T01:37:55.190Z,7.1723
2023-04-18T01:39:03.254Z,7.5791
2023-04-18T01:40:11.152Z,7.5222
2023-04-18T01:41:19.439Z,7.4471
2023-04-18T01:42:27.410Z,7.5659
2023-04-18T01:43:35.446Z,7.8511
2023-04-18T01:44:43.588Z,7.2082
2023-04-18T01:45:51.442Z,7.2779
2023-04-18T01:46:59.682Z,7.6213
2023-04-18T01:48:07.755Z,7.4849
2023-04-18T01:49:15.791Z,7.5270
2023-04-18T01:50:23.867Z,7.6193
2023-04-18T01:51:32.047Z,8.1665
2023-04-18T01:52:39.974Z,7.9844
2023-04-18T01:53:47.933Z,7.4633
2023-04-18T01:54:56.238Z,7.7957
2023-04-18T01:56:04.189Z,7.4008
2023-04-18T01:57:12.124Z,7.7942
2023-04-18T01:58:20.311Z,7.8478
2023-04-18T01:59:28.253Z,7.9363
2023-04-18T02:00:36.482Z,8.0138
2023-04-18T02:01:44.682Z,8.2538
2023-04-18T02:02:52.569Z,7.9322
2023-04-18T02:04:00.755Z,7.7923
2023-04-18T02:05:08.576Z,7.8013
2023-04-18T02:06:16.771Z,8.1856
2023-04-18T02:07:24.868Z,8.2651
2023-04-18T02:08:32.895Z,8.2093
2023-04-18T02:09:40.979Z,8.2696
2023-04-18T02:10:48.911Z,8.6314
2023-04-18T02:11:57.147Z,8.8414
2023-04-18T02:13:05.288Z,8.5063
2023-04-18T02:14:13.403Z,8.6115
2023-04-18T02:15:21.368Z,8.4841
2023-04-18T02:16:29.394Z,8.4195
2023-04-18T02:17:37.518Z,9.0694
2023-04-18T02:18:45.501Z,8.5524
2023-04-18T02:19:53.593Z,8.7880
2023-04-18T02:21:01.634Z,9.0954
2023-04-18T02:22:09.688Z,8.3377
2023-04-18T02:23:17.843Z,9.0487
2023-04-18T02:24:25.825Z,8.7272
2023-04-18T02:25:33.901Z,8.7585
2023-04-18T02:26:42.001Z,8.5626
2023-04-18T02:27:50.051Z,8.6310
2023-04-18T02:28:58.266Z,9.0072
2023-04-18T02:30:06.302Z,8.9955
2023-04-18T02:31:14.119Z,9.0113
2023-04-18T02:32:22.346Z,9.4050
2023-04-18T02:33:30.406Z,9.0661
2023-04-18T02:34:38.528Z,8.6553
2023-04-18T02:35:46.500Z,9.1252
2023-04-18T02:36:54.439Z,9.0635
2023-04-18T02:38:02.777Z,8.9900
2023-04-18T02:39:10.876Z,8.9737
2023-04-18T02:40:18.660Z,9.2094
2023-04-18T02:41:26.836Z,9.0062
2023-04-18T02:42:34.925Z,9.4045
2023-04-18T02:43:42.963Z,8.8812
2023-04-18T02:44:51.019Z,8.5489
2023-04-18T02:45:59.161Z,8.8636
2023-04-18T02:47:07.218Z,9.4289
2023-04-18T02:48:15.261Z,9.6963
2023-04-18T02:49:23.389Z,9.1285
2023-04-18T02:50:31.296Z,9.2091
2023-04-18T02:51:39.413Z,8.8899
2023-04-18T02:52:47.436Z,9.6046
2023-04-18T02:53:55.388Z,8.9044
2023-04-18T02:55:03.578Z,9.9970
2023-04-18T02:56:11.827Z,9.4961
2023-04-18T02:57:19.599Z,9.6520
2023-04-18T02:58:27.782Z,9.6449
2023-04-18T02:59:35.952Z,9.8121
2023-04-18T03:00:43.949Z,10.2113
2023-04-18T03:01:51.943Z,10.3236
2023-04-18T03:03:00.216Z,9.6782
2023-04-18T03:04:08.054Z,10.1647
2023-04-18T03:05:16.128Z,10.5504
2023-04-18T03:06:24.207Z,10.6242
2023-04-18T03:07:32.237Z,10.2659
2023-04-18T03:08:40.228Z,10.0317
2023-04-18T03:09:48.396Z,10.0250
2023-04-18T03:10:56.514Z,10.4900
2023-04-18T03:12:04.582Z,11.0475
2023-04-18T03:13:12.597Z,11.0359
2023-04-18T03:14:20.702Z,10.8343
2023-04-18T03:15:28.676Z,10.4652
2023-04-18T03:16:36.755Z,11.0072
2023-04-18T03:17:44.707Z,10.5585
2023-04-18T03:18:53.015Z,9.8866
2023-04-18T03:20:00.862Z,10.1473
2023-04-18T03:21:09.027Z,10.3704
2023-04-18T03:22:17.059Z,10.9365
2023-04-18T03:23:25.092Z,10.9716
2023-04-18T03:24:33.174Z,11.3604
2023-04-18T03:25:41.291Z,11.1199
2023-04-18T03:26:49.334Z,10.7818
2023-04-18T03:27:57.405Z,10.9583
2023-04-18T03:29:05.306Z,11.3074
2023-04-18T03:30:13.534Z,10.9829
2023-04-18T03:31:21.625Z,11.1264
2023-04-18T03:32:29.664Z,11.7944
2023-04-18T03:33:37.684Z,11.3169
2023-04-18T03:34:45.856Z,10.7657
2023-04-18T03:35:53.828Z,11.1477
2023-04-18T03:37:01.844Z,10.9619
2023-04-18T03:38:09.974Z,11.4596
2023-04-18T03:39:18.013Z,10.8915
2023-04-18T03:40:26.104Z,11.6297
2023-04-18T03:41:34.137Z,11.5689
2023-04-18T03:42:42.259Z,10.7649
2023-04-18T03:43:50.227Z,11.2567
2023-04-18T03:44:58.388Z,11.0001
2023-04-18T03:46:06.563Z,11.1854
2023-04-18T03:47:14.459Z,11.2539
2023-04-18T03:48:22.427Z,11.1137
2023-04-18T03:49:30.647Z,10.9568
2023-04-18T03:50:38.672Z,11.1898
2023-04-18T03:51:46.692Z,11.4327
2023-04-18T03:52:54.797Z,10.8115
2023-04-18T03:54:02.740Z,10.9535
2023-04-18T03:55:11.156Z,10.9710
2023-04-18T03:56:18.936Z,11.1118
2023-04-18T03:57:27.234Z,10.8447
2023-04-18T03:58:35.113Z,11.4024
2023-04-18T03:59:43.212Z,11.3951
2023-04-18T04:00:51.280Z,11.2805
2023-04-18T04:01:59.353Z,11.4186
2023-04-18T04:03:07.527Z,11.5227
2023-04-18T04:04:15.777Z,11.5399
2023-04-18T04:05:23.546Z,11.3546
2023-04-18T04:06:31.499Z,11.4210
2023-04-18T04:07:39.531Z,11.3237
2023-04-18T04:08:47.608Z,11.5909
2023-04-18T04:09:55.680Z,11.5597
2023-04-18T04:11:03.829Z,11.0852
2023-04-18T04:12:11.872Z,11.0653
2023-04-18T04:13:20.009Z,11.1746
2023-04-18T04:14:27.859Z,11.4952
2023-04-18T04:15:36.029Z,11.4559
2023-04-18T04:16:44.148Z,11.5586
2023-04-18T04:17:52.182Z,11.0325
2023-04-18T04:19:00.190Z,12.1258
2023-04-18T04:20:08.230Z,11.8729
2023-04-18T04:21:16.300Z,11.5829
2023-04-18T04:22:24.435Z,11.8076
2023-04-18T04:23:32.429Z,11.5620
2023-04-18T04:24:40.614Z,11.2410
2023-04-18T04:25:48.537Z,11.2148
2023-04-18T04:26:56.653Z,11.8473
2023-04-18T04:28:04.750Z,12.3651
2023-04-18T04:29:12.752Z,11.9449
2023-04-18T04:30:20.803Z,11.5827
2023-04-18T04:31:28.883Z,11.6877
2023-04-18T04:32:37.021Z,12.4277
2023-04-18T04:33:45.046Z,11.7772
2023-04-18T04:34:53.042Z,12.8260
2023-04-18T04:36:01.256Z,11.7515
2023-04-18T04:37:09.188Z,11.7688
2023-04-18T04:38:17.291Z,11.8177
2023-04-18T04:39:25.396Z,12.4238
2023-04-18T04:40:33.380Z,12.1888
2023-04-18T04:41:41.494Z,12.5350
2023-04-18T04:42:49.494Z,12.0823
2023-04-18T04:43:57.527Z,11.9296
2023-04-18T04:45:05.779Z,12.3244
2023-04-18T04:46:13.718Z,12.3828
2023-04-18T04:47:21.746Z,12.0612
2023-04-18T04:48:29.800Z,12.5083
2023-04-18T04:49:37.938Z,12.0937
2023-04-18T04:50:46.035Z,12.1282
2023-04-18T04:51:53.924Z,12.2742
2023-04-18T04:53:02.104Z,12.0165
2023-04-18T04:54:10.223Z,12.3125
2023-04-18T04:55:18.174Z,11.8445
2023-04-18T04:56:26.273Z,12.2005
2023-04-18T04:57:34.336Z,11.8959
2023-04-18T04:58:42.391Z,12.8413
2023-04-18T04:59:50.438Z,12.3330
2023-04-18T05:00:58.462Z,12.6464
2023-04-18T05:02:06.669Z,12.6237
2023-04-18T05:03:14.933Z,12.4414
2023-04-18T05:04:22.843Z,12.9776
2023-04-18T05:05:30.744Z,14.9562
2023-04-18T05:06:40.306Z,14.2535
2023-04-18T05:07:46.946Z,14.2957
2023-04-18T05:08:55.029Z,15.2787
2023-04-18T05:10:03.135Z,15.2507
2023-04-18T05:11:11.139Z,15.2987
2023-04-18T05:12:19.205Z,14.8729
2023-04-18T05:13:27.419Z,14.4648
2023-04-18T05:14:35.285Z,14.0593
2023-04-18T05:15:43.387Z,14.5518
2023-04-18T05:16:51.479Z,14.2894
2023-04-18T05:17:59.533Z,14.0543
2023-04-18T05:19:07.615Z,13.1870
2023-04-18T05:20:15.576Z,12.9936
2023-04-18T05:21:23.682Z,13.5823
2023-04-18T05:22:31.748Z,13.1398
2023-04-18T05:23:39.846Z,13.3150
2023-04-18T05:24:48.054Z,13.0557
2023-04-18T05:25:56.176Z,13.3367
2023-04-18T05:27:04.021Z,13.2396
2023-04-18T05:28:12.069Z,13.5529
2023-04-18T05:29:20.123Z,12.9441
2023-04-18T05:30:28.208Z,13.0717
2023-04-18T05:31:36.313Z,13.0391
2023-04-18T05:32:44.366Z,13.2499
2023-04-18T05:33:52.483Z,13.2755
2023-04-18T05:35:00.492Z,13.3269
2023-04-18T05:36:08.535Z,12.4686
2023-04-18T05:37:16.566Z,13.0015
2023-04-18T05:38:24.629Z,12.9139
2023-04-18T05:39:32.702Z,13.4285
2023-04-18T05:40:40.762Z,13.1378
2023-04-18T05:41:48.849Z,13.1677
2023-04-18T05:42:56.892Z,13.2584
2023-04-18T05:44:05.929Z,13.3035
2023-04-18T05:45:13.013Z,12.8422
2023-04-18T05:46:21.077Z,13.0211
2023-04-18T05:47:29.228Z,12.7591
2023-04-18T05:48:37.226Z,12.8048
2023-04-18T05:49:45.229Z,12.5297
2023-04-18T05:50:53.332Z,13.0182
2023-04-18T05:52:01.384Z,12.4735
2023-04-18T05:53:09.532Z,13.2472
2023-04-18T05:54:17.606Z,13.3102
2023-04-18T05:55:25.546Z,13.5422
2023-04-18T05:56:33.679Z,13.2132
2023-04-18T05:57:41.776Z,12.8862
2023-04-18T05:58:49.820Z,13.8639
2023-04-18T05:59:57.868Z,13.0959
2023-04-18T06:01:05.848Z,13.3780
2023-04-18T06:02:14.039Z,14.0049
2023-04-18T06:03:22.280Z,13.7066
2023-04-18T06:04:30.412Z,13.6676
2023-04-18T06:05:38.356Z,13.9646
2023-04-18T06:06:46.248Z,13.6652
2023-04-18T06:07:54.305Z,13.5881
2023-04-18T06:09:02.444Z,13.7207
2023-04-18T06:10:10.459Z,13.9215
2023-04-18T06:11:18.424Z,14.2111
2023-04-18T06:12:26.485Z,13.6876
2023-04-18T06:13:34.631Z,14.2692
2023-04-18T06:14:42.729Z,14.3716
2023-04-18T06:15:50.726Z,13.7741
2023-04-18T06:16:58.825Z,13.4212
2023-04-18T06:18:06.875Z,13.6893
2023-04-18T06:19:14.969Z,14.1821
2023-04-18T06:20:23.114Z,13.6893
2023-04-18T06:21:31.076Z,14.0036
2023-04-18T06:22:39.154Z,14.0183
2023-04-18T06:23:47.335Z,13.3511
2023-04-18T06:24:55.280Z,14.2143
2023-04-18T06:26:03.381Z,14.1380
2023-04-18T06:27:20.731Z,14.1754
2023-04-18T06:28:24.358Z,14.1318
2023-04-18T06:29:32.346Z,13.9470
2023-04-18T06:30:40.469Z,13.9349
2023-04-18T06:31:48.648Z,14.3961
2023-04-18T06:32:56.584Z,14.1982
2023-04-18T06:34:04.671Z,13.8157
2023-04-18T06:35:12.840Z,14.2080
2023-04-18T06:36:20.810Z,13.6604
2023-04-18T06:37:28.817Z,14.3000
2023-04-18T06:38:36.895Z,14.6294
2023-04-18T06:39:45.216Z,14.2213
2023-04-18T06:40:53.053Z,13.8462
2023-04-18T06:42:01.142Z,13.0612
2023-04-18T06:43:09.232Z,14.3928
2023-04-18T06:44:17.307Z,14.5754
2023-04-18T06:45:25.403Z,14.3680
2023-04-18T06:46:33.391Z,14.3115
2023-04-18T06:47:41.414Z,14.0747
2023-04-18T06:48:51.047Z,14.4699
2023-04-18T06:49:57.571Z,13.6539
2023-04-18T06:51:05.695Z,13.6559
2023-04-18T06:52:13.734Z,14.4984
2023-04-18T06:53:21.671Z,14.1164
2023-04-18T06:54:29.844Z,14.5894
2023-04-18T06:55:37.997Z,14.6312
2023-04-18T06:56:45.976Z,14.4340
2023-04-18T06:57:54.025Z,15.1636
2023-04-18T06:59:02.140Z,14.9156
2023-04-18T07:00:10.098Z,15.4291
2023-04-18T07:01:18.373Z,14.6003
2023-04-18T07:02:26.356Z,14.1621
2023-04-18T07:03:34.391Z,13.9309
2023-04-18T07:04:42.366Z,14.5914
2023-04-18T07:05:50.502Z,13.8486
2023-04-18T07:06:58.561Z,13.8018
2023-04-18T07:08:06.570Z,14.3280
2023-04-18T07:09:14.630Z,13.7003
2023-04-18T07:10:22.592Z,14.3889
2023-04-18T07:11:30.790Z,14.4165
2023-04-18T07:12:38.734Z,14.5697
2023-04-18T07:13:46.785Z,15.2138
2023-04-18T07:14:54.907Z,14.3970
2023-04-18T07:16:02.953Z,14.4575
2023-04-18T07:17:11.204Z,14.5554
2023-04-18T07:18:30.262Z,15.2439
2023-04-18T07:19:32.054Z,14.4626
2023-04-18T07:20:40.068Z,15.5197
2023-04-18T07:21:48.204Z,15.4499
2023-04-18T07:22:56.246Z,15.1653
2023-04-18T07:24:04.264Z,14.9800
2023-04-18T07:25:12.222Z,15.7169
2023-04-18T07:26:20.379Z,15.7718
2023-04-18T07:27:28.463Z,15.5496
2023-04-18T07:28:36.532Z,15.6874
2023-04-18T07:29:44.570Z,16.1497
2023-04-18T07:30:52.583Z,15.7444
2023-04-18T07:32:00.687Z,15.2722
2023-04-18T07:33:08.814Z,15.1564
2023-04-18T07:34:16.836Z,15.3747
2023-04-18T07:35:24.856Z,16.5403
2023-04-18T07:36:32.860Z,16.7149
2023-04-18T07:37:41.115Z,16.2370
2023-04-18T07:38:49.065Z,16.5104
2023-04-18T07:39:57.143Z,16.9439
2023-04-18T07:41:05.180Z,16.8802
2023-04-18T07:42:13.190Z,17.2727
2023-04-18T07:43:21.312Z,17.0616
2023-04-18T07:44:29.382Z,16.3594
2023-04-18T07:45:37.494Z,16.4178
2023-04-18T07:46:45.604Z,16.6661
2023-04-18T07:47:53.557Z,15.7278
2023-04-18T07:49:01.646Z,16.3712
2023-04-18T07:50:09.704Z,16.2765
2023-04-18T07:51:17.730Z,16.2108
2023-04-18T07:52:25.840Z,16.7923
2023-04-18T07:53:33.820Z,16.6209
2023-04-18T07:54:41.923Z,17.0406
2023-04-18T07:55:50.330Z,16.6327
2023-04-18T07:56:58.169Z,16.9149
2023-04-18T07:58:06.148Z,16.4929
2023-04-18T07:59:14.325Z,16.1827
2023-04-18T08:00:22.183Z,16.5613
2023-04-18T08:01:30.313Z,16.9340
2023-04-18T08:02:38.572Z,16.8309
2023-04-18T08:03:46.577Z,16.0925
2023-04-18T08:04:54.980Z,16.7171
2023-04-18T08:06:02.585Z,17.7923
2023-04-18T08:07:10.676Z,16.6892
2023-04-18T08:08:18.853Z,17.9852
2023-04-18T08:09:26.729Z,18.8734
2023-04-18T08:10:34.720Z,18.9083
2023-04-18T08:11:42.867Z,16.9474
2023-04-18T08:12:50.942Z,17.0412
2023-04-18T08:13:59.036Z,16.7746
2023-04-18T08:15:07.076Z,16.5546
2023-04-18T08:16:17.359Z,15.5107
2023-04-18T08:17:23.207Z,16.4285
2023-04-18T08:18:31.248Z,16.3339
2023-04-18T08:19:39.205Z,16.1901
2023-04-18T08:20:47.517Z,16.1243
2023-04-18T08:21:55.442Z,16.3195
2023-04-18T08:23:08.642Z,15.9395
2023-04-18T08:24:16.376Z,16.3452
2023-04-18T08:25:24.515Z,16.2302
2023-04-18T08:26:32.554Z,15.9015
2023-04-18T08:27:40.678Z,16.3688
2023-04-18T08:28:48.554Z,15.8942
2023-04-18T08:29:56.810Z,16.5416
2023-04-18T08:31:04.743Z,16.3540
2023-04-18T08:32:12.901Z,16.0680
2023-04-18T08:33:20.901Z,16.3754
2023-04-18T08:34:28.935Z,16.1825
2023-04-18T08:35:36.957Z,15.8823
2023-04-18T08:36:45.046Z,16.7901
2023-04-18T08:37:53.019Z,17.1274
2023-04-18T08:39:01.203Z,17.1874
2023-04-18T08:40:09.163Z,17.5364
2023-04-18T08:41:17.415Z,17.2387
2023-04-18T08:42:25.396Z,17.9536
2023-04-18T08:43:33.326Z,18.2696
2023-04-18T08:44:41.475Z,17.9371
2023-04-18T08:45:49.434Z,16.2786
2023-04-18T08:46:57.640Z,16.4357
2023-04-18T08:48:05.586Z,16.6074
2023-04-18T08:49:13.798Z,16.7702
2023-04-18T08:50:21.823Z,17.2183
2023-04-18T08:51:29.770Z,16.6525
2023-04-18T08:52:38.020Z,16.9292
2023-04-18T08:53:46.030Z,17.1676
2023-04-18T08:54:53.969Z,16.5406
2023-04-18T08:56:02.022Z,16.6838
2023-04-18T08:57:10.029Z,15.9435
2023-04-18T08:58:18.087Z,16.0566
2023-04-18T08:59:26.185Z,16.4762
2023-04-18T09:00:34.160Z,17.6032
2023-04-18T09:01:42.313Z,16.8463
2023-04-18T09:02:50.437Z,15.7123
2023-04-18T09:03:58.504Z,16.1293
2023-04-18T09:05:06.466Z,14.9410
2023-04-18T09:06:14.442Z,15.8655
2023-04-18T09:07:22.613Z,15.5988
2023-04-18T09:08:30.747Z,15.7259
2023-04-18T09:09:38.690Z,15.4490
2023-04-18T09:10:46.913Z,15.4021
2023-04-18T09:11:54.716Z,15.6083
2023-04-18T09:13:02.890Z,15.3270
2023-04-18T09:14:11.240Z,14.4462
2023-04-18T09:15:19.003Z,15.0832
2023-04-18T09:16:27.125Z,14.8728
2023-04-18T09:17:35.118Z,15.9163
2023-04-18T09:18:43.228Z,15.8832
2023-04-18T09:19:51.348Z,16.1021
2023-04-18T09:20:59.440Z,16.1255
2023-04-18T09:22:07.397Z,16.2328
2023-04-18T09:23:15.399Z,16.5859
2023-04-18T09:24:23.688Z,16.7842
2023-04-18T09:25:31.717Z,16.2706
2023-04-18T09:26:39.623Z,16.8700
2023-04-18T09:27:47.718Z,16.8256
2023-04-18T09:28:55.674Z,16.2666
2023-04-18T09:30:03.876Z,17.2747
2023-04-18T09:31:12.188Z,19.3546
2023-04-18T09:32:19.992Z,17.4887
2023-04-18T09:33:28.117Z,16.2297
2023-04-18T09:34:35.965Z,16.5978
2023-04-18T09:35:44.177Z,15.9140
2023-04-18T09:36:52.292Z,15.9814
2023-04-18T09:38:00.349Z,16.1114
2023-04-18T09:39:08.297Z,15.8976
2023-04-18T09:40:16.264Z,15.2982
2023-04-18T09:41:24.403Z,15.2257
2023-04-18T09:42:32.486Z,15.7194
2023-04-18T09:43:40.404Z,15.6393
2023-04-18T09:44:48.486Z,15.7201
2023-04-18T09:45:56.617Z,15.8280
2023-04-18T09:47:04.715Z,15.6804
2023-04-18T09:48:12.781Z,17.5563
2023-04-18T09:49:20.713Z,17.0901
2023-04-18T09:50:28.838Z,17.6446
2023-04-18T09:51:36.949Z,17.2425
2023-04-18T09:52:45.301Z,17.0134
2023-04-18T09:53:53.037Z,16.7786
2023-04-18T09:55:01.210Z,17.5400
2023-04-18T09:56:09.197Z,17.0864
2023-04-18T09:57:17.186Z,16.7820
2023-04-18T09:58:25.205Z,17.1526
2023-04-18T09:59:33.191Z,17.3337
2023-04-18T10:00:41.376Z,16.7967
2023-04-18T10:01:49.482Z,17.4224
2023-04-18T10:02:57.502Z,16.6904
2023-04-18T10:04:05.552Z,15.9847
2023-04-18T10:05:13.803Z,15.4427
2023-04-18T10:06:21.559Z,15.5786
2023-04-18T10:07:29.702Z,16.0704
2023-04-18T10:08:37.762Z,16.0461
2023-04-18T10:09:45.781Z,16.2642
2023-04-18T10:10:53.917Z,16.1482
2023-04-18T10:12:02.073Z,16.5195
2023-04-18T10:13:09.995Z,16.5728
2023-04-18T10:14:18.259Z,16.1407
2023-04-18T10:15:26.047Z,15.7500
2023-04-18T10:16:35.654Z,16.3058
2023-04-18T10:17:52.551Z,15.7048
2023-04-18T10:18:55.157Z,15.3129
2023-04-18T10:20:03.180Z,15.2566
2023-04-18T10:21:11.186Z,15.9346
2023-04-18T10:22:19.348Z,15.8923
2023-04-18T10:23:28.174Z,15.9602
2023-04-18T10:24:35.344Z,15.3762
2023-04-18T10:25:43.475Z,15.7376
2023-04-18T10:26:51.447Z,15.0487
2023-04-18T10:27:59.622Z,15.7540
2023-04-18T10:29:07.644Z,16.4031
2023-04-18T10:30:15.632Z,17.3594
2023-04-18T10:31:23.864Z,18.6965
2023-04-18T10:32:31.801Z,18.7808
2023-04-18T10:33:42.442Z,18.6035
2023-04-18T10:34:52.807Z,17.5254
2023-04-18T10:36:01.037Z,16.9528
2023-04-18T10:37:08.938Z,20.4535
2023-04-18T10:38:17.006Z,25.9782
2023-04-18T10:39:25.059Z,25.9833
2023-04-18T10:40:33.078Z,28.4429
2023-04-18T10:41:41.304Z,32.2452
2023-04-18T10:42:49.217Z,23.1769
2023-04-18T10:43:57.239Z,18.2165
2023-04-18T10:45:05.605Z,22.7454
2023-04-18T10:46:24.270Z,32.9760
2023-04-18T10:47:26.331Z,23.1133
2023-04-18T10:48:38.459Z,21.3315
2023-04-18T10:49:47.384Z,19.6233
2023-04-18T10:50:55.240Z,17.4942
2023-04-18T10:52:03.362Z,16.5596
2023-04-18T10:53:11.407Z,17.2332
2023-04-18T10:54:19.545Z,17.7280
2023-04-18T10:55:27.592Z,17.0440
2023-04-18T10:56:35.578Z,16.6123
2023-04-18T10:57:43.696Z,16.4155
2023-04-18T10:58:51.741Z,17.0936
2023-04-18T10:59:59.693Z,16.2230
2023-04-18T11:01:07.963Z,16.0672
2023-04-18T11:02:15.786Z,16.7344
2023-04-18T11:03:23.986Z,16.0323
2023-04-18T11:04:32.011Z,16.6961
2023-04-18T11:05:40.063Z,15.8067
2023-04-18T11:06:48.130Z,15.9094
2023-04-18T11:07:56.090Z,16.4634
2023-04-18T11:09:04.350Z,16.0796
2023-04-18T11:10:12.335Z,16.0205
2023-04-18T11:11:20.368Z,16.3868
2023-04-18T11:12:28.477Z,16.3842
2023-04-18T11:13:36.341Z,16.4813
2023-04-18T11:14:44.497Z,16.5205
2023-04-18T11:15:52.645Z,16.2676
2023-04-18T11:17:00.575Z,15.9850
2023-04-18T11:18:08.718Z,16.7857
2023-04-18T11:19:16.920Z,17.2097
2023-04-18T11:20:24.772Z,17.0422
2023-04-18T11:21:32.883Z,16.9334
2023-04-18T11:22:40.828Z,17.0915
2023-04-18T11:23:49.011Z,16.6020
2023-04-18T11:24:57.044Z,16.4352
2023-04-18T11:26:05.064Z,16.2175
2023-04-18T11:27:13.091Z,16.7829
2023-04-18T11:28:21.207Z,16.4768
2023-04-18T11:29:29.234Z,16.2818
2023-04-18T11:30:37.213Z,16.7495
2023-04-18T11:31:45.535Z,15.5593
2023-04-18T11:32:53.396Z,16.1072
2023-04-18T11:34:01.352Z,15.6922
2023-04-18T11:35:09.544Z,16.4444
2023-04-18T11:36:17.570Z,16.7741
2023-04-18T11:37:25.626Z,16.3102
2023-04-18T11:38:33.636Z,16.2163
2023-04-18T11:39:41.682Z,17.0220
2023-04-18T11:40:49.920Z,17.0754
2023-04-18T11:41:57.737Z,16.5122
2023-04-18T11:43:05.857Z,16.5523
2023-04-18T11:44:13.954Z,16.3099
2023-04-18T11:45:22.076Z,16.4846
2023-04-18T11:46:30.184Z,15.9583
2023-04-18T11:47:38.199Z,15.9723
2023-04-18T11:48:46.070Z,15.6103
2023-04-18T11:49:56.500Z,15.3351
2023-04-18T11:51:07.365Z,14.7826
2023-04-18T11:52:15.207Z,14.6973
2023-04-18T11:53:23.154Z,14.0940
2023-04-18T11:54:31.266Z,14.1378
2023-04-18T11:55:39.342Z,14.7545
2023-04-18T11:56:47.372Z,14.5013
2023-04-18T11:57:55.543Z,14.5347
2023-04-18T11:59:03.630Z,13.5712
2023-04-18T12:00:11.519Z,13.2731
2023-04-18T12:01:19.720Z,12.9154
2023-04-18T12:02:27.857Z,13.6453
2023-04-18T12:03:35.950Z,13.8810
2023-04-18T12:04:44.088Z,13.8465
2023-04-18T12:05:51.993Z,13.0221
2023-04-18T12:06:59.930Z,11.8788
2023-04-18T12:08:08.164Z,12.1802
2023-04-18T12:09:15.970Z,12.0838
2023-04-18T12:10:24.074Z,11.5861
2023-04-18T12:11:32.182Z,11.8575
2023-04-18T12:12:40.202Z,11.1585
2023-04-18T12:13:48.277Z,11.1498
2023-04-18T12:14:56.329Z,11.0099
2023-04-18T12:16:04.389Z,10.4855
2023-04-18T12:17:12.511Z,10.8284
2023-04-18T12:18:20.483Z,10.8201
2023-04-18T12:19:28.613Z,10.8610
2023-04-18T12:20:36.601Z,10.5724
2023-04-18T12:21:44.631Z,10.7985
2023-04-18T12:22:52.651Z,10.6460
2023-04-18T12:24:00.758Z,11.4148
2023-04-18T12:25:08.883Z,11.6522
2023-04-18T12:26:16.835Z,10.8794
2023-04-18T12:27:24.953Z,10.4994
2023-04-18T12:28:33.031Z,10.8536
2023-04-18T12:29:41.018Z,10.4108
2023-04-18T12:30:49.137Z,10.2021
2023-04-18T12:31:57.187Z,10.2885
2023-04-18T12:33:05.265Z,10.2080
2023-04-18T12:34:13.433Z,10.2808
2023-04-18T12:35:21.250Z,10.4003
2023-04-18T12:36:29.423Z,10.4856
2023-04-18T12:37:37.526Z,10.3151
2023-04-18T12:38:45.481Z,9.7183
2023-04-18T12:39:53.601Z,9.7416
2023-04-18T12:41:01.617Z,10.0247
2023-04-18T12:42:09.697Z,9.5694
2023-04-18T12:43:17.659Z,8.8551
2023-04-18T12:44:25.758Z,9.1193
2023-04-18T12:45:33.735Z,8.9582
2023-04-18T12:46:41.869Z,8.8689
2023-04-18T12:47:50.016Z,9.2157
2023-04-18T12:48:57.973Z,9.3091
2023-04-18T12:50:06.103Z,8.8072
2023-04-18T12:51:14.093Z,8.8183
2023-04-18T12:52:22.071Z,8.8997
2023-04-18T12:53:30.277Z,8.9010
2023-04-18T12:54:38.286Z,9.2747
2023-04-18T12:55:46.321Z,9.0924
2023-04-18T12:56:54.409Z,8.7767
2023-04-18T12:58:02.572Z,9.4934
2023-04-18T12:59:10.565Z,9.5794
2023-04-18T13:00:18.504Z,8.9677
2023-04-18T13:01:26.766Z,9.1619
2023-04-18T13:02:34.845Z,9.3676
2023-04-18T13:03:42.770Z,8.7376
2023-04-18T13:04:50.953Z,9.8264
2023-04-18T13:05:58.794Z,9.4151
2023-04-18T13:07:06.920Z,8.7672
2023-04-18T13:08:17.677Z,8.9451
2023-04-18T13:09:27.918Z,8.8074
2023-04-18T13:10:36.163Z,8.6351
2023-04-18T13:11:43.958Z,8.9909
2023-04-18T13:12:52.040Z,8.7996
2023-04-18T13:14:00.168Z,8.4597
2023-04-18T13:15:08.176Z,8.6646
2023-04-18T13:16:16.294Z,8.5478
2023-04-18T13:17:24.289Z,9.0529
2023-04-18T13:18:32.294Z,8.3255
2023-04-18T13:19:40.463Z,8.9089
2023-04-18T13:20:48.544Z,8.7306
2023-04-18T13:21:56.688Z,8.1643
2023-04-18T13:23:04.694Z,7.9135
2023-04-18T13:24:12.621Z,8.4681
2023-04-18T13:25:20.726Z,8.2092
2023-04-18T13:26:28.836Z,8.0386
2023-04-18T13:27:37.358Z,7.9855
2023-04-18T13:28:44.891Z,7.8692
2023-04-18T13:29:52.979Z,8.1823
2023-04-18T13:31:01.200Z,8.2681
2023-04-18T13:32:09.301Z,7.8434
2023-04-18T13:33:17.251Z,8.5031
2023-04-18T13:34:25.399Z,7.7576
2023-04-18T13:35:33.325Z,7.8821
2023-04-18T13:36:41.402Z,7.7466
2023-04-18T13:37:49.552Z,7.0719
2023-04-18T13:38:57.523Z,7.5263
2023-04-18T13:40:05.589Z,7.3988
2023-04-18T13:41:13.911Z,7.0004
2023-04-18T13:42:21.701Z,6.6708
2023-04-18T13:43:29.789Z,6.7410
2023-04-18T13:44:37.765Z,7.0362
2023-04-18T13:45:46.067Z,7.0335
2023-04-18T13:46:53.867Z,6.7714
2023-04-18T13:48:02.050Z,7.3099
2023-04-18T13:49:10.125Z,7.5369
2023-04-18T13:50:18.147Z,7.5531
2023-04-18T13:51:26.205Z,7.2243